Time;durP1;ratioP1;P1;durP2;ratioP2;P2;SDS_P1;SDS_P2;PMS_P1;PMS_P2;Temp;Humidity;BMP_temperature;BMP_pressure;BME280_temperature;BME280_humidity;BME280_pressure;Samples;Min_cycle;Max_cycle;Signal;HPM_P1;HPM_P2
2022/12/11 00:01:09;;;;;;;;;;;;;;;;;;5076053;28;5017;-58
2022/12/11 00:03:35;;;;;;;;;;;;;;;;;;5067143;28;4925;-58
2022/12/11 00:06:03;;;;;;;;;;;;;;;;;;5063945;28;5147;-58
2022/12/11 00:08:28;;;;;;;;;;;;;;;;;;5072146;28;3560;-56
2022/12/11 00:10:53;;;;;;;;;;;;;;;;;;5068664;28;4995;-58
2022/12/11 00:13:18;;;;;;;;;;;;;;;;;;5075030;28;5126;-57
2022/12/11 00:15:44;;;;;;;;;;;;;;;;;;5073743;28;4504;-58
2022/12/11 00:18:11;;;;;;;;;;;;;;;;;;5075879;28;5112;-57
2022/12/11 00:20:36;;;;;;;;;;;;;;;;;;5071233;28;3342;-58
2022/12/11 00:23:03;;;;;;;;;;;;;;;;;;5057362;28;5118;-57
2022/12/11 00:25:28;;;;;;;;;;;;;;;;;;5070997;28;4466;-58
2022/12/11 00:27:53;;;;;;;;;;;;;;;;;;5074386;28;4474;-58
2022/12/11 00:30:19;;;;;;;;;;;;;;;;;;5074746;28;5117;-58
2022/12/11 00:32:44;;;;;;;;;;;;;;;;;;5066549;28;3504;-58
2022/12/11 00:35:10;;;;;;;;;;;;;;;;;;5072984;28;4598;-57
2022/12/11 00:37:35;;;;;;;;;;;;;;;;;;5073114;28;5654;-58
2022/12/11 00:40:00;;;;;;;;;;;;;;;;;;5070403;28;5099;-58
2022/12/11 00:42:25;;;;;;;;;;;;;;;;;;5069494;28;4606;-58
2022/12/11 00:44:51;;;;;;;;;;;;;;;;;;5071626;28;3306;-56
2022/12/11 00:47:16;;;;;;;;;;;;;;;;;;5069270;28;5079;-58
2022/12/11 00:49:41;;;;;;;;;;;;;;;;;;5071732;28;5478;-57
2022/12/11 00:52:06;;;;;;;;;;;;;;;;;;5071649;28;5003;-57
2022/12/11 00:54:32;;;;;;;;;;;;;;;;;;5046131;28;4554;-57
2022/12/11 00:56:58;;;;;;;;;;;;;;;;;;5070004;28;3446;-56
2022/12/11 00:59:23;;;;;;;;;;;;;;;;;;5075935;28;4371;-56
2022/12/11 01:01:48;;;;;;;;;;;;;;;;;;5079979;28;5380;-57
2022/12/11 01:04:13;;;;;;;;;;;;;;;;;;5049941;28;4581;-59
2022/12/11 01:06:39;;;;;;;;;;;;;;;;;;5083746;28;5006;-56
2022/12/11 01:11:48;;;;;;;;;;;;;;;;;;5081089;28;3265;-59
2022/12/11 01:14:13;;;;;;;;;;;;;;;;;;5079333;28;4985;-57
2022/12/11 01:16:39;;;;;;;;;;;;;;;;;;5075644;28;4553;-58
2022/12/11 01:19:04;;;;;;;;;;;;;;;;;;5083125;28;4917;-58
2022/12/11 01:21:29;;;;;;;;;;;;;;;;;;5074794;28;5028;-58
2022/12/11 01:23:54;;;;;;;;;;;;;;;;;;5074388;28;3348;-57
2022/12/11 01:26:20;;;;;;;;;;;;;;;;;;5071413;28;5049;-58
2022/12/11 01:28:47;;;;;;;;;;;;;;;;;;5068844;28;4995;-58
2022/12/11 01:31:13;;;;;;;;;;;;;;;;;;5071151;28;4820;-57
2022/12/11 01:33:38;;;;;;;;;;;;;;;;;;5066439;28;5106;-57
2022/12/11 01:36:11;;;;;;;;;;;;;;;;;;5074850;28;5122;-57
2022/12/11 01:38:36;;;;;;;;;;;;;;;;;;5071948;28;3602;-58
2022/12/11 01:41:02;;;;;;;;;;;;;;;;;;5072201;28;5053;-58
2022/12/11 01:43:27;;;;;;;;;;;;;;;;;;5077365;28;4473;-58
2022/12/11 01:45:52;;;;;;;;;;;;;;;;;;5069519;28;4527;-58
2022/12/11 01:48:19;;;;;;;;;;;;;;;;;;5079333;28;4920;-58
2022/12/11 01:50:48;;;;;;;;;;;;;;;;;;5055038;28;3342;-58
2022/12/11 01:53:16;;;;;;;;;;;;;;;;;;5050986;28;5091;-58
2022/12/11 01:55:41;;;;;;;;;;;;;;;;;;5080175;28;5041;-58
2022/12/11 01:58:07;;;;;;;;;;;;;;;;;;5052171;28;4954;-58
2022/12/11 02:00:32;;;;;;;;;;;;;;;;;;5063866;28;4909;-58
2022/12/11 02:02:57;;;;;;;;;;;;;;;;;;5078066;28;3342;-58
2022/12/11 02:05:22;;;;;;;;;;;;;;;;;;5071638;28;4887;-58
2022/12/11 02:07:55;;;;;;;;;;;;;;;;;;5069872;28;5135;-58
2022/12/11 02:10:22;;;;;;;;;;;;;;;;;;5077767;28;5044;-58
2022/12/11 02:12:58;;;;;;;;;;;;;;;;;;5049678;28;5172;-58
2022/12/11 02:15:31;;;;;;;;;;;;;;;;;;5056288;28;5466;-58
2022/12/11 02:18:05;;;;;;;;;;;;;;;;;;5051156;28;3488;-58
2022/12/11 02:20:49;;;;;;;;;;;;;;;;;;5075163;28;5058;-58
2022/12/11 02:23:20;;;;;;;;;;;;;;;;;;5069973;28;5021;-58
2022/12/11 02:25:45;;;;;;;;;;;;;;;;;;5051164;28;5105;-57
2022/12/11 02:28:17;;;;;;;;;;;;;;;;;;5076654;28;5253;-59
2022/12/11 02:30:43;;;;;;;;;;;;;;;;;;5074789;28;5603;-58
2022/12/11 02:33:08;;;;;;;;;;;;;;;;;;5081727;28;5251;-58
2022/12/11 02:35:34;;;;;;;;;;;;;;;;;;5080848;28;3410;-58
2022/12/11 02:38:22;;;;;;;;;;;;;;;;;;5054022;28;4478;-58
2022/12/11 02:40:48;;;;;;;;;;;;;;;;;;5074360;28;5112;-58
2022/12/11 02:43:13;;;;;;;;;;;;;;;;;;5063131;28;5133;-58
2022/12/11 02:45:39;;;;;;;;;;;;;;;;;;5049812;28;4551;-59
2022/12/11 02:48:04;;;;;;;;;;;;;;;;;;5053471;28;5138;-59
2022/12/11 02:50:30;;;;;;;;;;;;;;;;;;5079016;28;3341;-59
2022/12/11 02:52:55;;;;;;;;;;;;;;;;;;5077578;28;4484;-59
2022/12/11 02:55:20;;;;;;;;;;;;;;;;;;5064064;28;4788;-59
2022/12/11 02:58:09;;;;;;;;;;;;;;;;;;5081661;28;5101;-59
2022/12/11 03:00:34;;;;;;;;;;;;;;;;;;5073193;28;4537;-59
2022/12/11 03:03:00;;;;;;;;;;;;;;;;;;5072491;28;4544;-57
2022/12/11 03:05:26;;;;;;;;;;;;;;;;;;5057024;28;3323;-58
2022/12/11 03:07:52;;;;;;;;;;;;;;;;;;5067990;28;5020;-59
2022/12/11 03:10:17;;;;;;;;;;;;;;;;;;5076014;28;4685;-59
2022/12/11 03:12:43;;;;;;;;;;;;;;;;;;5043191;28;4926;-59
2022/12/11 03:15:10;;;;;;;;;;;;;;;;;;5081731;28;5061;-59
2022/12/11 03:17:55;;;;;;;;;;;;;;;;;;5083003;28;3632;-59
2022/12/11 03:20:36;;;;;;;;;;;;;;;;;;5079528;28;5013;-59
2022/12/11 03:23:21;;;;;;;;;;;;;;;;;;5051072;28;4952;-59
2022/12/11 03:25:49;;;;;;;;;;;;;;;;;;5074711;28;5215;-59
2022/12/11 03:28:14;;;;;;;;;;;;;;;;;;5072477;28;5059;-59
2022/12/11 03:30:40;;;;;;;;;;;;;;;;;;5073167;28;5171;-59
2022/12/11 03:33:09;;;;;;;;;;;;;;;;;;5051427;28;4962;-59
2022/12/11 03:35:39;;;;;;;;;;;;;;;;;;5076867;28;3328;-59
2022/12/11 03:38:05;;;;;;;;;;;;;;;;;;5055884;28;5061;-59
2022/12/11 03:40:32;;;;;;;;;;;;;;;;;;5059237;28;5045;-59
2022/12/11 03:42:57;;;;;;;;;;;;;;;;;;5056012;28;4712;-59
2022/12/11 03:45:22;;;;;;;;;;;;;;;;;;5080431;28;4864;-59
2022/12/11 03:47:48;;;;;;;;;;;;;;;;;;5053715;28;3245;-59
2022/12/11 03:50:14;;;;;;;;;;;;;;;;;;5069756;28;4994;-59
2022/12/11 03:52:39;;;;;;;;;;;;;;;;;;5049038;28;5018;-59
2022/12/11 03:55:05;;;;;;;;;;;;;;;;;;5053912;28;5541;-59
2022/12/11 03:57:31;;;;;;;;;;;;;;;;;;5075949;28;4678;-59
2022/12/11 03:59:56;;;;;;;;;;;;;;;;;;5078033;28;3533;-59
2022/12/11 04:02:21;;;;;;;;;;;;;;;;;;5068672;28;4962;-59
2022/12/11 04:04:47;;;;;;;;;;;;;;;;;;5068429;28;5353;-59
2022/12/11 04:07:12;;;;;;;;;;;;;;;;;;5076339;28;4593;-59
2022/12/11 04:09:37;;;;;;;;;;;;;;;;;;5068492;28;4932;-59
2022/12/11 04:12:02;;;;;;;;;;;;;;;;;;5070445;28;5044;-59
2022/12/11 04:24:13;;;;;;;;;;;;;;;;;;5067338;28;5337;-59
2022/12/11 04:25:24;;;;;;;;;;;;;;;;;;5071480;28;4490;-59
2022/12/11 04:27:50;;;;;;;;;;;;;;;;;;5066366;28;5060;-59
2022/12/11 04:30:21;;;;;;;;;;;;;;;;;;5070133;28;4742;-59
2022/12/11 04:32:47;;;;;;;;;;;;;;;;;;5074241;28;3359;-59
2022/12/11 04:35:12;;;;;;;;;;;;;;;;;;5076779;28;5035;-59
2022/12/11 04:37:37;;;;;;;;;;;;;;;;;;5082948;28;5281;-59
2022/12/11 04:40:03;;;;;;;;;;;;;;;;;;5071071;28;5072;-59
2022/12/11 04:42:29;;;;;;;;;;;;;;;;;;5069607;28;5144;-59
2022/12/11 04:44:54;;;;;;;;;;;;;;;;;;5072226;28;3286;-59
2022/12/11 04:47:19;;;;;;;;;;;;;;;;;;5077622;28;5037;-59
2022/12/11 04:49:44;;;;;;;;;;;;;;;;;;5077665;28;5007;-59
2022/12/11 04:52:10;;;;;;;;;;;;;;;;;;5076312;28;4909;-59
2022/12/11 04:54:35;;;;;;;;;;;;;;;;;;5075181;28;5135;-59
2022/12/11 04:57:00;;;;;;;;;;;;;;;;;;5076110;28;4659;-59
2022/12/11 04:59:25;;;;;;;;;;;;;;;;;;5077423;28;3596;-60
2022/12/11 05:01:51;;;;;;;;;;;;;;;;;;5069405;28;4523;-59
2022/12/11 05:04:16;;;;;;;;;;;;;;;;;;5073651;28;4650;-59
2022/12/11 05:06:41;;;;;;;;;;;;;;;;;;5068937;28;5116;-59
2022/12/11 05:09:09;;;;;;;;;;;;;;;;;;5067821;28;4602;-59
2022/12/11 05:11:35;;;;;;;;;;;;;;;;;;5051832;28;3484;-59
2022/12/11 05:14:00;;;;;;;;;;;;;;;;;;5071469;28;5048;-59
2022/12/11 05:16:25;;;;;;;;;;;;;;;;;;5083081;28;5609;-60
2022/12/11 05:18:50;;;;;;;;;;;;;;;;;;5081821;28;4966;-59
2022/12/11 05:21:15;;;;;;;;;;;;;;;;;;5056491;28;5168;-58
2022/12/11 05:23:41;;;;;;;;;;;;;;;;;;5072988;28;3473;-59
2022/12/11 05:26:07;;;;;;;;;;;;;;;;;;5078346;28;5094;-59
2022/12/11 05:28:33;;;;;;;;;;;;;;;;;;5073645;28;5065;-59
2022/12/11 05:30:59;;;;;;;;;;;;;;;;;;5066971;28;5084;-59
2022/12/11 05:33:24;;;;;;;;;;;;;;;;;;5065802;28;5025;-59
2022/12/11 05:35:50;;;;;;;;;;;;;;;;;;5071548;28;3573;-59
2022/12/11 05:38:15;;;;;;;;;;;;;;;;;;5060016;28;5467;-59
2022/12/11 05:40:40;;;;;;;;;;;;;;;;;;5059299;28;5047;-59
2022/12/11 05:43:05;;;;;;;;;;;;;;;;;;5069922;28;5277;-59
2022/12/11 05:45:31;;;;;;;;;;;;;;;;;;5073569;28;4588;-59
2022/12/11 05:47:56;;;;;;;;;;;;;;;;;;5079974;28;3536;-59
2022/12/11 05:50:21;;;;;;;;;;;;;;;;;;5078491;28;5318;-58
2022/12/11 05:52:47;;;;;;;;;;;;;;;;;;5073235;28;4830;-59
2022/12/11 05:55:12;;;;;;;;;;;;;;;;;;5080763;28;5300;-59
2022/12/11 05:57:37;;;;;;;;;;;;;;;;;;5081144;28;5049;-59
2022/12/11 06:00:03;;;;;;;;;;;;;;;;;;5083163;28;4690;-59
2022/12/11 06:02:28;;;;;;;;;;;;;;;;;;5075859;28;3364;-59
2022/12/11 06:04:53;;;;;;;;;;;;;;;;;;5059400;28;5142;-59
2022/12/11 06:07:19;;;;;;;;;;;;;;;;;;5086426;28;4559;-59
2022/12/11 06:09:44;;;;;;;;;;;;;;;;;;5084800;28;4999;-59
2022/12/11 06:12:09;;;;;;;;;;;;;;;;;;5086926;28;5382;-59
2022/12/11 06:14:35;;;;;;;;;;;;;;;;;;5080708;28;3226;-59
2022/12/11 06:17:00;;;;;;;;;;;;;;;;;;5081333;28;4525;-58
2022/12/11 06:19:25;;;;;;;;;;;;;;;;;;5071528;28;4842;-59
2022/12/11 06:21:50;;;;;;;;;;;;;;;;;;5083378;28;4876;-59
2022/12/11 06:24:16;;;;;;;;;;;;;;;;;;5053883;28;4978;-59
2022/12/11 06:26:41;;;;;;;;;;;;;;;;;;5065416;28;3370;-59
2022/12/11 06:29:06;;;;;;;;;;;;;;;;;;5082730;28;4923;-59
2022/12/11 06:31:31;;;;;;;;;;;;;;;;;;5080405;28;4999;-59
2022/12/11 06:33:57;;;;;;;;;;;;;;;;;;5056012;28;5014;-59
2022/12/11 06:36:22;;;;;;;;;;;;;;;;;;5083526;28;5045;-58
2022/12/11 06:38:48;;;;;;;;;;;;;;;;;;5086721;28;3284;-60
2022/12/11 06:41:13;;;;;;;;;;;;;;;;;;5073787;28;4767;-59
2022/12/11 06:43:39;;;;;;;;;;;;;;;;;;5080948;28;5172;-59
2022/12/11 06:46:08;;;;;;;;;;;;;;;;;;5072407;28;4627;-58
2022/12/11 06:48:33;;;;;;;;;;;;;;;;;;5075266;28;5193;-60
2022/12/11 06:50:58;;;;;;;;;;;;;;;;;;5078217;28;1083;-58
2022/12/11 06:53:24;;;;;;;;;;;;;;;;;;5075428;28;5010;-59
2022/12/11 06:55:49;;;;;;;;;;;;;;;;;;5052933;28;5057;-59
2022/12/11 06:58:14;;;;;;;;;;;;;;;;;;5066822;28;5141;-59
2022/12/11 07:00:39;;;;;;;;;;;;;;;;;;5063604;28;5190;-60
2022/12/11 07:03:05;;;;;;;;;;;;;;;;;;5078646;28;5059;-60
2022/12/11 07:05:30;;;;;;;;;;;;;;;;;;5075930;28;1225;-59
2022/12/11 07:07:56;;;;;;;;;;;;;;;;;;5061065;28;4985;-59
2022/12/11 07:10:21;;;;;;;;;;;;;;;;;;5086580;28;4982;-59
2022/12/11 07:12:46;;;;;;;;;;;;;;;;;;5078952;28;5115;-59
2022/12/11 07:15:12;;;;;;;;;;;;;;;;;;5074875;28;5081;-58
2022/12/11 07:17:37;;;;;;;;;;;;;;;;;;5082481;28;1264;-59
2022/12/11 07:20:03;;;;;;;;;;;;;;;;;;5086380;28;5017;-59
2022/12/11 07:22:28;;;;;;;;;;;;;;;;;;5071405;28;4961;-59
2022/12/11 07:24:53;;;;;;;;;;;;;;;;;;5056561;28;4576;-59
2022/12/11 07:27:18;;;;;;;;;;;;;;;;;;5074024;28;5040;-59
2022/12/11 07:29:44;;;;;;;;;;;;;;;;;;5071509;28;3463;-59
2022/12/11 07:32:09;;;;;;;;;;;;;;;;;;5080138;28;5044;-59
2022/12/11 07:34:34;;;;;;;;;;;;;;;;;;5073547;28;4464;-59
2022/12/11 07:37:00;;;;;;;;;;;;;;;;;;5071440;28;4575;-59
2022/12/11 07:39:25;;;;;;;;;;;;;;;;;;5085549;28;5007;-58
2022/12/11 07:41:50;;;;;;;;;;;;;;;;;;5086704;28;1380;-58
2022/12/11 07:44:15;;;;;;;;;;;;;;;;;;5074287;28;4989;-59
2022/12/11 07:46:41;;;;;;;;;;;;;;;;;;5079157;28;4471;-59
2022/12/11 07:49:06;;;;;;;;;;;;;;;;;;5077705;28;5073;-59
2022/12/11 07:51:34;;;;;;;;;;;;;;;;;;5084570;28;5142;-59
2022/12/11 07:54:01;;;;;;;;;;;;;;;;;;5065163;28;5018;-58
2022/12/11 07:56:26;;;;;;;;;;;;;;;;;;5084076;28;3536;-59
2022/12/11 07:58:51;;;;;;;;;;;;;;;;;;5082163;28;4902;-59
2022/12/11 08:01:17;;;;;;;;;;;;;;;;;;5078888;28;4969;-58
2022/12/11 08:03:43;;;;;;;;;;;;;;;;;;5073218;28;4607;-59
2022/12/11 08:06:08;;;;;;;;;;;;;;;;;;5075646;28;5103;-58
2022/12/11 08:08:33;;;;;;;;;;;;;;;;;;5067499;28;3461;-59
2022/12/11 08:11:06;;;;;;;;;;;;;;;;;;5074051;28;5015;-58
2022/12/11 08:13:31;;;;;;;;;;;;;;;;;;5072189;28;5403;-57
2022/12/11 08:15:57;;;;;;;;;;;;;;;;;;5080544;28;5125;-58
2022/12/11 08:18:22;;;;;;;;;;;;;;;;;;5077153;28;4659;-59
2022/12/11 08:20:47;;;;;;;;;;;;;;;;;;5074719;28;3364;-59
2022/12/11 08:23:12;;;;;;;;;;;;;;;;;;5069739;28;4504;-59
2022/12/11 08:25:37;;;;;;;;;;;;;;;;;;5074281;28;4909;-59
2022/12/11 08:28:03;;;;;;;;;;;;;;;;;;5067604;28;5241;-59
2022/12/11 08:30:28;;;;;;;;;;;;;;;;;;5066364;28;5264;-59
2022/12/11 08:32:53;;;;;;;;;;;;;;;;;;5074078;28;3254;-59
2022/12/11 08:35:18;;;;;;;;;;;;;;;;;;5068132;28;5157;-58
2022/12/11 08:37:44;;;;;;;;;;;;;;;;;;5073623;28;5409;-58
2022/12/11 08:40:09;;;;;;;;;;;;;;;;;;5056612;28;4754;-59
2022/12/11 08:42:35;;;;;;;;;;;;;;;;;;5061440;28;5139;-59
2022/12/11 08:45:00;;;;;;;;;;;;;;;;;;5065913;28;5014;-58
2022/12/11 08:47:25;;;;;;;;;;;;;;;;;;5049473;28;3329;-59
2022/12/11 08:49:51;;;;;;;;;;;;;;;;;;5075627;28;4991;-59
2022/12/11 08:52:16;;;;;;;;;;;;;;;;;;5068794;28;4565;-59
2022/12/11 08:54:41;;;;;;;;;;;;;;;;;;5072725;28;5105;-59
2022/12/11 08:57:06;;;;;;;;;;;;;;;;;;5067102;28;5084;-59
2022/12/11 08:59:32;;;;;;;;;;;;;;;;;;5067568;28;3321;-59
2022/12/11 09:01:57;;;;;;;;;;;;;;;;;;5070691;28;4457;-59
2022/12/11 09:04:22;;;;;;;;;;;;;;;;;;5075434;28;5070;-58
2022/12/11 09:06:48;;;;;;;;;;;;;;;;;;5070040;28;4518;-59
2022/12/11 09:09:13;;;;;;;;;;;;;;;;;;5066776;28;5163;-58
2022/12/11 09:11:38;;;;;;;;;;;;;;;;;;5061064;28;3337;-59
2022/12/11 09:14:04;;;;;;;;;;;;;;;;;;5065703;28;5066;-59
2022/12/11 09:16:29;;;;;;;;;;;;;;;;;;5083723;28;4477;-59
2022/12/11 09:18:55;;;;;;;;;;;;;;;;;;5078431;28;4959;-59
2022/12/11 09:21:21;;;;;;;;;;;;;;;;;;5055340;28;5139;-59
2022/12/11 09:23:46;;;;;;;;;;;;;;;;;;5068350;28;3207;-59
2022/12/11 09:26:12;;;;;;;;;;;;;;;;;;5049719;28;4546;-59
2022/12/11 09:28:38;;;;;;;;;;;;;;;;;;5078172;28;5128;-59
2022/12/11 09:31:10;;;;;;;;;;;;;;;;;;5054570;28;5044;-58
2022/12/11 09:33:35;;;;;;;;;;;;;;;;;;5082474;28;5134;-58
2022/12/11 09:36:01;;;;;;;;;;;;;;;;;;5073061;28;4984;-58
2022/12/11 09:38:26;;;;;;;;;;;;;;;;;;5077715;28;3308;-58
2022/12/11 09:40:52;;;;;;;;;;;;;;;;;;5059877;28;5041;-64
2022/12/11 09:43:36;;;;;;;;;;;;;;;;;;5057372;28;5355;-61
2022/12/11 09:46:02;;;;;;;;;;;;;;;;;;5069867;28;4617;-61
2022/12/11 09:48:27;;;;;;;;;;;;;;;;;;5057625;28;5153;-60
2022/12/11 09:50:53;;;;;;;;;;;;;;;;;;5082696;28;3246;-60
2022/12/11 09:53:24;;;;;;;;;;;;;;;;;;5081205;28;4892;-60
2022/12/11 09:55:59;;;;;;;;;;;;;;;;;;5066044;28;4896;-60
2022/12/11 09:58:37;;;;;;;;;;;;;;;;;;5079384;28;5031;-60
2022/12/11 10:01:15;;;;;;;;;;;;;;;;;;5074172;28;5029;-66
2022/12/11 10:03:40;;;;;;;;;;;;;;;;;;5091588;28;4424;-66
2022/12/11 10:06:05;;;;;;;;;;;;;;;;;;5080306;28;5053;-65
2022/12/11 10:08:33;;;;;;;;;;;;;;;;;;5083412;28;1914;-63
2022/12/11 10:11:04;;;;;;;;;;;;;;;;;;5061285;28;4542;-61
2022/12/11 10:13:34;;;;;;;;;;;;;;;;;;5088059;28;4844;-65
2022/12/11 10:16:03;;;;;;;;;;;;;;;;;;5084003;28;5728;-64
2022/12/11 10:18:28;;;;;;;;;;;;;;;;;;5068067;28;5096;-65
2022/12/11 10:20:53;;;;;;;;;;;;;;;;;;5088370;28;1403;-65
2022/12/11 10:23:34;;;;;;;;;;;;;;;;;;5081700;28;5502;-65
2022/12/11 10:26:18;;;;;;;;;;;;;;;;;;5065438;28;5164;-64
2022/12/11 10:28:43;;;;;;;;;;;;;;;;;;5087569;28;5070;-64
2022/12/11 10:31:09;;;;;;;;;;;;;;;;;;5082635;28;4469;-64
2022/12/11 10:33:44;;;;;;;;;;;;;;;;;;5086765;28;4947;-65
2022/12/11 10:36:09;;;;;;;;;;;;;;;;;;5082848;28;5220;-57
2022/12/11 10:38:39;;;;;;;;;;;;;;;;;;5067551;28;3431;-64
2022/12/11 10:41:16;;;;;;;;;;;;;;;;;;5064280;28;4497;-63
2022/12/11 10:43:45;;;;;;;;;;;;;;;;;;5087552;28;5008;-65
2022/12/11 10:46:17;;;;;;;;;;;;;;;;;;5085320;28;5141;-61
2022/12/11 10:48:46;;;;;;;;;;;;;;;;;;5083453;28;4549;-65
2022/12/11 10:51:11;;;;;;;;;;;;;;;;;;5065039;28;5227;-67
2022/12/11 10:53:37;;;;;;;;;;;;;;;;;;5088427;28;4438;-66
2022/12/11 10:56:02;;;;;;;;;;;;;;;;;;5064409;28;4993;-66
2022/12/11 10:58:28;;;;;;;;;;;;;;;;;;5068951;28;5002;-67
2022/12/11 11:01:05;;;;;;;;;;;;;;;;;;5085166;28;4624;-63
2022/12/11 11:03:30;;;;;;;;;;;;;;;;;;5065942;28;4918;-68
2022/12/11 11:06:02;;;;;;;;;;;;;;;;;;5071437;28;1556;-68
2022/12/11 11:08:27;;;;;;;;;;;;;;;;;;5086961;28;5330;-67
2022/12/11 11:10:59;;;;;;;;;;;;;;;;;;5062346;28;5021;-65
2022/12/11 11:13:26;;;;;;;;;;;;;;;;;;5083529;28;5115;-68
2022/12/11 11:16:01;;;;;;;;;;;;;;;;;;5085938;28;5332;-67
2022/12/11 11:18:27;;;;;;;;;;;;;;;;;;5052247;28;5040;-66
2022/12/11 11:20:52;;;;;;;;;;;;;;;;;;5068022;28;1333;-61
2022/12/11 11:23:17;;;;;;;;;;;;;;;;;;5053712;28;5517;-66
2022/12/11 11:25:49;;;;;;;;;;;;;;;;;;5059852;28;4477;-64
2022/12/11 11:28:18;;;;;;;;;;;;;;;;;;5075625;28;5095;-64
2022/12/11 11:30:52;;;;;;;;;;;;;;;;;;5077968;28;5154;-60
2022/12/11 11:33:18;;;;;;;;;;;;;;;;;;5063859;28;4569;-62
2022/12/11 11:35:54;;;;;;;;;;;;;;;;;;5066651;28;3280;-64
2022/12/11 11:38:23;;;;;;;;;;;;;;;;;;5080491;28;4952;-65
2022/12/11 11:40:52;;;;;;;;;;;;;;;;;;5082293;28;5173;-63
2022/12/11 11:43:36;;;;;;;;;;;;;;;;;;5057365;28;5183;-63
2022/12/11 11:46:06;;;;;;;;;;;;;;;;;;5078586;28;5583;-64
2022/12/11 11:48:34;;;;;;;;;;;;;;;;;;5077194;28;4653;-63
2022/12/11 11:51:01;;;;;;;;;;;;;;;;;;5080896;28;3385;-62
2022/12/11 11:53:30;;;;;;;;;;;;;;;;;;5063519;28;5118;-64
2022/12/11 11:56:02;;;;;;;;;;;;;;;;;;5064443;28;4657;-59
2022/12/11 11:58:47;;;;;;;;;;;;;;;;;;5073979;28;4949;-59
2022/12/11 12:01:16;;;;;;;;;;;;;;;;;;5060623;28;4519;-61
2022/12/11 12:03:41;;;;;;;;;;;;;;;;;;5074753;28;4955;-62
2022/12/11 12:06:25;;;;;;;;;;;;;;;;;;5035966;28;3451;-62
2022/12/11 12:08:59;;;;;;;;;;;;;;;;;;5055713;28;4935;-61
2022/12/11 12:11:40;;;;;;;;;;;;;;;;;;5056962;28;4997;-62
2022/12/11 12:14:26;;;;;;;;;;;;;;;;;;5051257;28;4975;-62
2022/12/11 12:17:10;;;;;;;;;;;;;;;;;;5053729;28;4733;-62
2022/12/11 12:19:54;;;;;;;;;;;;;;;;;;5054478;28;4645;-63
2022/12/11 12:22:32;;;;;;;;;;;;;;;;;;5047852;28;4887;-59
2022/12/11 12:25:16;;;;;;;;;;;;;;;;;;5051553;28;5046;-63
2022/12/11 12:27:48;;;;;;;;;;;;;;;;;;5059378;28;5075;-59
2022/12/11 12:30:14;;;;;;;;;;;;;;;;;;5046912;28;5128;-62
2022/12/11 12:32:42;;;;;;;;;;;;;;;;;;5050703;28;3790;-62
2022/12/11 12:35:26;;;;;;;;;;;;;;;;;;5062864;28;5157;-63
2022/12/11 12:37:51;;;;;;;;;;;;;;;;;;5046790;28;5074;-60
2022/12/11 12:40:26;;;;;;;;;;;;;;;;;;5055527;28;5045;-58
2022/12/11 12:43:09;;;;;;;;;;;;;;;;;;5045758;28;5532;-62
2022/12/11 12:45:41;;;;;;;;;;;;;;;;;;5043444;28;5075;-60
2022/12/11 12:48:06;;;;;;;;;;;;;;;;;;5049647;28;4009;-59
2022/12/11 12:50:35;;;;;;;;;;;;;;;;;;5044346;28;4485;-62
2022/12/11 12:53:01;;;;;;;;;;;;;;;;;;5045456;28;4906;-63
2022/12/11 12:55:30;;;;;;;;;;;;;;;;;;5042363;28;5164;-63
2022/12/11 12:58:05;;;;;;;;;;;;;;;;;;5045844;28;5357;-63
2022/12/11 13:00:34;;;;;;;;;;;;;;;;;;5050685;28;5119;-66
2022/12/11 13:03:00;;;;;;;;;;;;;;;;;;5048816;28;3792;-62
2022/12/11 13:05:26;;;;;;;;;;;;;;;;;;5041134;28;5101;-64
2022/12/11 13:07:53;;;;;;;;;;;;;;;;;;5066331;28;4748;-59
2022/12/11 13:10:26;;;;;;;;;;;;;;;;;;5059489;28;4994;-62
2022/12/11 13:12:51;;;;;;;;;;;;;;;;;;5059350;28;4601;-59
2022/12/11 13:15:35;;;;;;;;;;;;;;;;;;5086431;28;5177;-59
2022/12/11 13:18:01;;;;;;;;;;;;;;;;;;5074578;28;4019;-60
2022/12/11 13:20:27;;;;;;;;;;;;;;;;;;5075888;28;4622;-64
2022/12/11 13:22:53;;;;;;;;;;;;;;;;;;5073889;28;4545;-66
2022/12/11 13:25:23;;;;;;;;;;;;;;;;;;5081336;28;5171;-66
2022/12/11 13:27:48;;;;;;;;;;;;;;;;;;5050780;28;5180;-67
2022/12/11 13:30:14;;;;;;;;;;;;;;;;;;5075023;28;4905;-65
2022/12/11 13:32:42;;;;;;;;;;;;;;;;;;5063297;28;4198;-65
2022/12/11 13:35:13;;;;;;;;;;;;;;;;;;5065509;28;5330;-62
2022/12/11 13:37:40;;;;;;;;;;;;;;;;;;5059279;28;4486;-62
2022/12/11 13:40:07;;;;;;;;;;;;;;;;;;5078098;28;4624;-64
2022/12/11 13:42:33;;;;;;;;;;;;;;;;;;5065517;28;4852;-66
2022/12/11 13:44:58;;;;;;;;;;;;;;;;;;5067385;28;3850;-64
2022/12/11 13:47:23;;;;;;;;;;;;;;;;;;5074659;28;5011;-63
2022/12/11 13:49:51;;;;;;;;;;;;;;;;;;5053125;28;4675;-65
2022/12/11 13:52:18;;;;;;;;;;;;;;;;;;5052324;28;5094;-62
2022/12/11 13:54:47;;;;;;;;;;;;;;;;;;5065715;28;5071;-65
2022/12/11 13:57:15;;;;;;;;;;;;;;;;;;5075210;28;5698;-63
2022/12/11 13:59:41;;;;;;;;;;;;;;;;;;5071693;28;4222;-65
2022/12/11 14:02:23;;;;;;;;;;;;;;;;;;5053840;28;5018;-65
2022/12/11 14:05:10;;;;;;;;;;;;;;;;;;5045144;28;5053;-61
2022/12/11 14:07:37;;;;;;;;;;;;;;;;;;5079128;28;4491;-64
2022/12/11 14:10:08;;;;;;;;;;;;;;;;;;5080363;28;5141;-61
2022/12/11 14:12:33;;;;;;;;;;;;;;;;;;5074923;28;5190;-62
2022/12/11 14:14:58;;;;;;;;;;;;;;;;;;5064852;28;3984;-64
2022/12/11 14:17:27;;;;;;;;;;;;;;;;;;5057207;28;4530;-64
2022/12/11 14:19:53;;;;;;;;;;;;;;;;;;5073832;28;5169;-64
2022/12/11 14:22:19;;;;;;;;;;;;;;;;;;5059685;28;5118;-64
2022/12/11 14:24:48;;;;;;;;;;;;;;;;;;5080327;28;4884;-64
2022/12/11 14:27:15;;;;;;;;;;;;;;;;;;5073517;28;5423;-65
2022/12/11 14:29:40;;;;;;;;;;;;;;;;;;5071863;28;3854;-63
2022/12/11 14:32:06;;;;;;;;;;;;;;;;;;5076806;28;4478;-63
2022/12/11 14:34:32;;;;;;;;;;;;;;;;;;5055888;28;5185;-64
2022/12/11 14:36:58;;;;;;;;;;;;;;;;;;5049381;28;4503;-64
2022/12/11 14:39:38;;;;;;;;;;;;;;;;;;5071248;28;5174;-63
2022/12/11 14:42:08;;;;;;;;;;;;;;;;;;5074269;28;4117;-64
2022/12/11 14:44:35;;;;;;;;;;;;;;;;;;5064036;28;5112;-63
2022/12/11 14:47:01;;;;;;;;;;;;;;;;;;5056574;28;5053;-64
2022/12/11 14:49:32;;;;;;;;;;;;;;;;;;5060130;28;5162;-62
2022/12/11 14:51:58;;;;;;;;;;;;;;;;;;5081202;28;5135;-64
2022/12/11 14:54:23;;;;;;;;;;;;;;;;;;5087858;28;5142;-62
2022/12/11 14:56:48;;;;;;;;;;;;;;;;;;5067088;28;4052;-64
2022/12/11 14:59:18;;;;;;;;;;;;;;;;;;5088673;28;5028;-64
2022/12/11 15:01:43;;;;;;;;;;;;;;;;;;5070322;28;4883;-64
2022/12/11 15:04:15;;;;;;;;;;;;;;;;;;5056590;28;4776;-64
2022/12/11 15:06:46;;;;;;;;;;;;;;;;;;5080521;28;4565;-63
2022/12/11 15:09:18;;;;;;;;;;;;;;;;;;5061113;28;5099;-64
2022/12/11 15:11:43;;;;;;;;;;;;;;;;;;5071209;28;3843;-64
2022/12/11 15:14:08;;;;;;;;;;;;;;;;;;5061205;28;5066;-64
2022/12/11 15:16:35;;;;;;;;;;;;;;;;;;5062729;28;4547;-63
2022/12/11 15:19:01;;;;;;;;;;;;;;;;;;5067764;28;5387;-62
2022/12/11 15:21:29;;;;;;;;;;;;;;;;;;5074005;28;5127;-63
2022/12/11 15:23:55;;;;;;;;;;;;;;;;;;5064379;28;3872;-64
2022/12/11 15:26:41;;;;;;;;;;;;;;;;;;5053178;28;5010;-64
2022/12/11 15:29:23;;;;;;;;;;;;;;;;;;5048003;28;5060;-62
2022/12/11 15:31:57;;;;;;;;;;;;;;;;;;5049823;28;5634;-58
2022/12/11 15:34:22;;;;;;;;;;;;;;;;;;5058897;28;5197;-59
2022/12/11 15:36:48;;;;;;;;;;;;;;;;;;5068254;28;5063;-57
2022/12/11 15:39:13;;;;;;;;;;;;;;;;;;5062474;28;5027;-55
2022/12/11 15:41:39;;;;;;;;;;;;;;;;;;5060892;28;4094;-55
2022/12/11 15:44:04;;;;;;;;;;;;;;;;;;5047328;28;4481;-64
2022/12/11 15:46:34;;;;;;;;;;;;;;;;;;5045341;28;4765;-64
2022/12/11 15:48:59;;;;;;;;;;;;;;;;;;5065389;28;5023;-64
2022/12/11 15:51:26;;;;;;;;;;;;;;;;;;5064678;28;5206;-62
2022/12/11 15:53:51;;;;;;;;;;;;;;;;;;5067426;28;4359;-63
2022/12/11 15:56:16;;;;;;;;;;;;;;;;;;5074648;28;4717;-63
2022/12/11 15:58:42;;;;;;;;;;;;;;;;;;5076231;28;5107;-63
2022/12/11 16:01:07;;;;;;;;;;;;;;;;;;5040970;28;5548;-63
2022/12/11 16:03:32;;;;;;;;;;;;;;;;;;5073088;28;4920;-63
2022/12/11 16:05:57;;;;;;;;;;;;;;;;;;5072496;28;1352;-63
2022/12/11 16:08:23;;;;;;;;;;;;;;;;;;5071239;28;4460;-63
2022/12/11 16:10:50;;;;;;;;;;;;;;;;;;5073250;28;5195;-63
2022/12/11 16:13:15;;;;;;;;;;;;;;;;;;5065855;28;4978;-63
2022/12/11 16:15:44;;;;;;;;;;;;;;;;;;5073247;28;5087;-63
2022/12/11 16:18:10;;;;;;;;;;;;;;;;;;5072703;28;5123;-62
2022/12/11 16:20:35;;;;;;;;;;;;;;;;;;5076048;28;4081;-64
2022/12/11 16:23:01;;;;;;;;;;;;;;;;;;5081066;28;5036;-63
2022/12/11 16:25:26;;;;;;;;;;;;;;;;;;5087458;28;4667;-64
2022/12/11 16:27:53;;;;;;;;;;;;;;;;;;5072704;28;5042;-64
2022/12/11 16:30:19;;;;;;;;;;;;;;;;;;5044359;28;5120;-64
2022/12/11 16:32:44;;;;;;;;;;;;;;;;;;5080202;28;4141;-63
2022/12/11 16:35:09;;;;;;;;;;;;;;;;;;5075072;28;5082;-63
2022/12/11 16:37:35;;;;;;;;;;;;;;;;;;5076761;28;4962;-63
2022/12/11 16:40:00;;;;;;;;;;;;;;;;;;5074457;28;5026;-64
2022/12/11 16:42:25;;;;;;;;;;;;;;;;;;5078792;28;5128;-63
2022/12/11 16:44:50;;;;;;;;;;;;;;;;;;5075753;28;1426;-64
2022/12/11 16:47:16;;;;;;;;;;;;;;;;;;5072830;28;5074;-64
2022/12/11 16:49:42;;;;;;;;;;;;;;;;;;5073048;28;5061;-64
2022/12/11 16:52:08;;;;;;;;;;;;;;;;;;5064389;28;5130;-64
2022/12/11 16:54:33;;;;;;;;;;;;;;;;;;5082923;28;4991;-64
2022/12/11 16:56:58;;;;;;;;;;;;;;;;;;5077742;28;3616;-65
2022/12/11 16:59:24;;;;;;;;;;;;;;;;;;5071301;28;5076;-64
2022/12/11 17:01:49;;;;;;;;;;;;;;;;;;5049625;28;5093;-63
2022/12/11 17:04:14;;;;;;;;;;;;;;;;;;5064806;28;5151;-62
2022/12/11 17:06:40;;;;;;;;;;;;;;;;;;5077832;28;5103;-67
2022/12/11 17:09:05;;;;;;;;;;;;;;;;;;5072429;28;3129;-64
2022/12/11 17:11:31;;;;;;;;;;;;;;;;;;5060133;28;4778;-62
2022/12/11 17:13:56;;;;;;;;;;;;;;;;;;5075347;28;4951;-62
2022/12/11 17:16:23;;;;;;;;;;;;;;;;;;5074270;28;4538;-57